sensor_id;sensor_type;location;lat;lon;timestamp;temperature;humidity
67163;DHT22;54092;53.088;8.850;2022-07-05T00:01:58;15.20;99.90
67163;DHT22;54092;53.088;8.850;2022-07-05T00:04:24;15.20;99.90
67163;DHT22;54092;53.088;8.850;2022-07-05T00:06:49;15.10;99.90
67163;DHT22;54092;53.088;8.850;2022-07-05T00:09:33;15.10;99.90
67163;DHT22;54092;53.088;8.850;2022-07-05T00:11:59;15.00;99.90
67163;DHT22;54092;53.088;8.850;2022-07-05T00:14:24;15.00;99.90
67163;DHT22;54092;53.088;8.850;2022-07-05T00:16:50;15.10;99.90
67163;DHT22;54092;53.088;8.850;2022-07-05T00:19:15;15.10;99.90
67163;DHT22;54092;53.088;8.850;2022-07-05T00:21:41;15.10;99.90
67163;DHT22;54092;53.088;8.850;2022-07-05T00:24:06;15.10;99.90
67163;DHT22;54092;53.088;8.850;2022-07-05T00:26:32;15.10;99.90
67163;DHT22;54092;53.088;8.850;2022-07-05T00:28:57;15.10;99.90
67163;DHT22;54092;53.088;8.850;2022-07-05T00:31:23;15.10;99.90
67163;DHT22;54092;53.088;8.850;2022-07-05T00:33:48;15.10;99.90
67163;DHT22;54092;53.088;8.850;2022-07-05T00:36:14;15.00;99.90
67163;DHT22;54092;53.088;8.850;2022-07-05T00:38:39;15.00;99.90
67163;DHT22;54092;53.088;8.850;2022-07-05T00:41:04;15.00;99.90
67163;DHT22;54092;53.088;8.850;2022-07-05T00:43:30;15.00;99.90
67163;DHT22;54092;53.088;8.850;2022-07-05T00:45:55;15.00;99.90
67163;DHT22;54092;53.088;8.850;2022-07-05T00:48:21;14.90;99.90
67163;DHT22;54092;53.088;8.850;2022-07-05T00:50:46;14.90;99.90
67163;DHT22;54092;53.088;8.850;2022-07-05T00:53:12;14.90;99.90
67163;DHT22;54092;53.088;8.850;2022-07-05T00:55:37;14.90;99.90
67163;DHT22;54092;53.088;8.850;2022-07-05T00:58:03;14.90;99.90
67163;DHT22;54092;53.088;8.850;2022-07-05T01:00:28;14.90;99.90
67163;DHT22;54092;53.088;8.850;2022-07-05T01:02:53;14.90;99.90
67163;DHT22;54092;53.088;8.850;2022-07-05T01:05:19;14.80;99.90
67163;DHT22;54092;53.088;8.850;2022-07-05T01:07:45;14.80;99.90
67163;DHT22;54092;53.088;8.850;2022-07-05T01:10:10;14.80;99.90
67163;DHT22;54092;53.088;8.850;2022-07-05T01:12:42;14.80;99.90
67163;DHT22;54092;53.088;8.850;2022-07-05T01:15:07;14.80;99.90
67163;DHT22;54092;53.088;8.850;2022-07-05T01:17:34;14.80;99.90
67163;DHT22;54092;53.088;8.850;2022-07-05T01:20:00;14.80;99.90
67163;DHT22;54092;53.088;8.850;2022-07-05T01:22:25;14.70;99.90
67163;DHT22;54092;53.088;8.850;2022-07-05T01:24:51;14.70;99.90
67163;DHT22;54092;53.088;8.850;2022-07-05T01:27:18;14.70;99.90
67163;DHT22;54092;53.088;8.850;2022-07-05T01:29:43;14.70;99.90
67163;DHT22;54092;53.088;8.850;2022-07-05T01:32:09;14.60;99.90
67163;DHT22;54092;53.088;8.850;2022-07-05T01:34:38;14.60;99.90
67163;DHT22;54092;53.088;8.850;2022-07-05T01:37:04;14.60;99.90
67163;DHT22;54092;53.088;8.850;2022-07-05T01:39:30;14.60;99.90
67163;DHT22;54092;53.088;8.850;2022-07-05T01:41:55;14.60;99.90
67163;DHT22;54092;53.088;8.850;2022-07-05T01:44:21;14.50;99.90
67163;DHT22;54092;53.088;8.850;2022-07-05T01:46:46;14.50;99.90
67163;DHT22;54092;53.088;8.850;2022-07-05T01:49:16;14.40;99.90
67163;DHT22;54092;53.088;8.850;2022-07-05T01:51:44;14.40;99.90
67163;DHT22;54092;53.088;8.850;2022-07-05T01:54:13;14.40;99.90
67163;DHT22;54092;53.088;8.850;2022-07-05T01:56:38;14.30;99.90
67163;DHT22;54092;53.088;8.850;2022-07-05T01:59:04;14.20;99.90
67163;DHT22;54092;53.088;8.850;2022-07-05T02:01:34;14.30;99.90
67163;DHT22;54092;53.088;8.850;2022-07-05T02:04:01;14.20;99.90
67163;DHT22;54092;53.088;8.850;2022-07-05T02:06:26;14.20;99.90
67163;DHT22;54092;53.088;8.850;2022-07-05T02:08:52;14.20;99.90
67163;DHT22;54092;53.088;8.850;2022-07-05T02:11:17;14.20;99.90
67163;DHT22;54092;53.088;8.850;2022-07-05T02:13:42;14.10;99.90
67163;DHT22;54092;53.088;8.850;2022-07-05T02:16:08;14.10;99.90
67163;DHT22;54092;53.088;8.850;2022-07-05T02:18:33;14.00;99.90
67163;DHT22;54092;53.088;8.850;2022-07-05T02:20:59;13.90;99.90
67163;DHT22;54092;53.088;8.850;2022-07-05T02:23:24;13.90;99.90
67163;DHT22;54092;53.088;8.850;2022-07-05T02:25:49;13.80;99.90
67163;DHT22;54092;53.088;8.850;2022-07-05T02:28:16;13.90;99.90
67163;DHT22;54092;53.088;8.850;2022-07-05T02:30:42;13.80;99.90
67163;DHT22;54092;53.088;8.850;2022-07-05T02:33:07;13.80;99.90
67163;DHT22;54092;53.088;8.850;2022-07-05T02:35:32;13.90;99.90
67163;DHT22;54092;53.088;8.850;2022-07-05T02:37:58;13.90;99.90
67163;DHT22;54092;53.088;8.850;2022-07-05T02:40:23;13.90;99.90
67163;DHT22;54092;53.088;8.850;2022-07-05T02:42:49;13.90;99.90
67163;DHT22;54092;53.088;8.850;2022-07-05T02:45:14;13.80;99.90
67163;DHT22;54092;53.088;8.850;2022-07-05T02:47:40;13.80;99.90
67163;DHT22;54092;53.088;8.850;2022-07-05T02:50:06;13.80;99.90
67163;DHT22;54092;53.088;8.850;2022-07-05T02:52:32;13.80;99.90
67163;DHT22;54092;53.088;8.850;2022-07-05T02:54:58;13.80;99.90
67163;DHT22;54092;53.088;8.850;2022-07-05T02:57:23;13.70;99.90
67163;DHT22;54092;53.088;8.850;2022-07-05T02:59:49;13.70;99.90
67163;DHT22;54092;53.088;8.850;2022-07-05T03:02:14;13.70;99.90
67163;DHT22;54092;53.088;8.850;2022-07-05T03:04:39;13.70;99.90
67163;DHT22;54092;53.088;8.850;2022-07-05T03:07:05;13.70;99.90
67163;DHT22;54092;53.088;8.850;2022-07-05T03:09:30;13.60;99.90
67163;DHT22;54092;53.088;8.850;2022-07-05T03:11:56;13.70;99.90
67163;DHT22;54092;53.088;8.850;2022-07-05T03:14:21;13.60;99.90
67163;DHT22;54092;53.088;8.850;2022-07-05T03:16:47;13.60;99.90
67163;DHT22;54092;53.088;8.850;2022-07-05T03:19:12;13.60;99.90
67163;DHT22;54092;53.088;8.850;2022-07-05T03:21:38;13.60;99.90
67163;DHT22;54092;53.088;8.850;2022-07-05T03:24:03;13.70;99.90
67163;DHT22;54092;53.088;8.850;2022-07-05T03:26:29;13.70;99.90
67163;DHT22;54092;53.088;8.850;2022-07-05T03:28:54;13.70;99.90
67163;DHT22;54092;53.088;8.850;2022-07-05T03:31:19;13.60;99.90
67163;DHT22;54092;53.088;8.850;2022-07-05T03:33:45;13.70;99.90
67163;DHT22;54092;53.088;8.850;2022-07-05T03:36:10;13.70;99.90
67163;DHT22;54092;53.088;8.850;2022-07-05T03:38:36;13.70;99.90
67163;DHT22;54092;53.088;8.850;2022-07-05T03:41:01;13.70;99.90
67163;DHT22;54092;53.088;8.850;2022-07-05T03:43:27;13.70;99.90
67163;DHT22;54092;53.088;8.850;2022-07-05T03:45:52;13.70;99.90
67163;DHT22;54092;53.088;8.850;2022-07-05T03:48:20;13.80;99.90
67163;DHT22;54092;53.088;8.850;2022-07-05T03:50:45;13.70;99.90
67163;DHT22;54092;53.088;8.850;2022-07-05T03:53:10;13.80;99.90
67163;DHT22;54092;53.088;8.850;2022-07-05T03:55:36;13.80;99.90
67163;DHT22;54092;53.088;8.850;2022-07-05T03:58:01;13.80;99.90
67163;DHT22;54092;53.088;8.850;2022-07-05T04:00:27;13.70;99.90
67163;DHT22;54092;53.088;8.850;2022-07-05T04:02:52;13.80;99.90
67163;DHT22;54092;53.088;8.850;2022-07-05T04:05:17;13.80;99.90
67163;DHT22;54092;53.088;8.850;2022-07-05T04:07:46;13.70;99.90
67163;DHT22;54092;53.088;8.850;2022-07-05T04:10:12;13.80;99.90
67163;DHT22;54092;53.088;8.850;2022-07-05T04:12:37;13.80;99.90
67163;DHT22;54092;53.088;8.850;2022-07-05T04:15:03;13.90;99.90
67163;DHT22;54092;53.088;8.850;2022-07-05T04:17:28;13.90;99.90
67163;DHT22;54092;53.088;8.850;2022-07-05T04:19:55;13.90;99.90
67163;DHT22;54092;53.088;8.850;2022-07-05T04:22:20;14.00;99.90
67163;DHT22;54092;53.088;8.850;2022-07-05T04:24:46;14.00;99.90
67163;DHT22;54092;53.088;8.850;2022-07-05T04:27:30;14.00;99.90
67163;DHT22;54092;53.088;8.850;2022-07-05T04:29:55;14.00;99.90
67163;DHT22;54092;53.088;8.850;2022-07-05T04:32:21;14.10;99.90
67163;DHT22;54092;53.088;8.850;2022-07-05T04:34:46;14.10;99.90
67163;DHT22;54092;53.088;8.850;2022-07-05T04:37:12;14.20;99.90
67163;DHT22;54092;53.088;8.850;2022-07-05T04:39:37;14.20;99.90
67163;DHT22;54092;53.088;8.850;2022-07-05T04:42:02;14.30;99.90
67163;DHT22;54092;53.088;8.850;2022-07-05T04:44:28;14.30;99.90
67163;DHT22;54092;53.088;8.850;2022-07-05T04:46:53;14.40;99.90
67163;DHT22;54092;53.088;8.850;2022-07-05T04:49:19;14.60;99.90
67163;DHT22;54092;53.088;8.850;2022-07-05T04:51:44;14.70;99.90
67163;DHT22;54092;53.088;8.850;2022-07-05T04:54:09;14.70;99.90
67163;DHT22;54092;53.088;8.850;2022-07-05T04:56:35;14.80;99.90
67163;DHT22;54092;53.088;8.850;2022-07-05T04:59:00;14.80;99.90
67163;DHT22;54092;53.088;8.850;2022-07-05T05:01:26;14.80;99.90
67163;DHT22;54092;53.088;8.850;2022-07-05T05:03:51;14.90;99.90
67163;DHT22;54092;53.088;8.850;2022-07-05T05:06:17;15.00;99.90
67163;DHT22;54092;53.088;8.850;2022-07-05T05:08:42;15.00;99.90
67163;DHT22;54092;53.088;8.850;2022-07-05T05:11:08;15.10;99.90
67163;DHT22;54092;53.088;8.850;2022-07-05T05:13:33;15.10;99.90
67163;DHT22;54092;53.088;8.850;2022-07-05T05:15:59;15.20;99.90
67163;DHT22;54092;53.088;8.850;2022-07-05T05:18:24;15.20;99.90
67163;DHT22;54092;53.088;8.850;2022-07-05T05:20:53;15.30;99.90
67163;DHT22;54092;53.088;8.850;2022-07-05T05:23:19;15.30;99.90
67163;DHT22;54092;53.088;8.850;2022-07-05T05:25:44;15.30;99.90
67163;DHT22;54092;53.088;8.850;2022-07-05T05:28:10;15.40;99.90
67163;DHT22;54092;53.088;8.850;2022-07-05T05:30:35;15.30;99.90
67163;DHT22;54092;53.088;8.850;2022-07-05T05:33:01;15.40;99.90
67163;DHT22;54092;53.088;8.850;2022-07-05T05:35:26;15.40;99.90
67163;DHT22;54092;53.088;8.850;2022-07-05T05:37:52;15.50;99.90
67163;DHT22;54092;53.088;8.850;2022-07-05T05:40:19;15.50;99.90
67163;DHT22;54092;53.088;8.850;2022-07-05T05:42:44;15.60;99.90
67163;DHT22;54092;53.088;8.850;2022-07-05T05:45:10;15.60;99.90
67163;DHT22;54092;53.088;8.850;2022-07-05T05:47:42;15.70;99.90
67163;DHT22;54092;53.088;8.850;2022-07-05T05:50:08;15.70;99.90
67163;DHT22;54092;53.088;8.850;2022-07-05T05:52:33;15.80;99.90
67163;DHT22;54092;53.088;8.850;2022-07-05T05:54:59;15.90;99.90
67163;DHT22;54092;53.088;8.850;2022-07-05T05:57:24;16.00;99.40
67163;DHT22;54092;53.088;8.850;2022-07-05T05:59:50;16.10;99.10
67163;DHT22;54092;53.088;8.850;2022-07-05T06:02:15;16.20;98.90
67163;DHT22;54092;53.088;8.850;2022-07-05T06:04:40;16.10;99.30
67163;DHT22;54092;53.088;8.850;2022-07-05T06:07:06;16.30;98.90
67163;DHT22;54092;53.088;8.850;2022-07-05T06:09:31;16.40;98.20
67163;DHT22;54092;53.088;8.850;2022-07-05T06:11:57;16.40;98.80
67163;DHT22;54092;53.088;8.850;2022-07-05T06:14:22;16.40;98.30
67163;DHT22;54092;53.088;8.850;2022-07-05T06:16:48;16.50;97.30
67163;DHT22;54092;53.088;8.850;2022-07-05T06:19:13;16.60;96.80
67163;DHT22;54092;53.088;8.850;2022-07-05T06:21:38;16.60;95.80
67163;DHT22;54092;53.088;8.850;2022-07-05T06:24:04;16.60;97.20
67163;DHT22;54092;53.088;8.850;2022-07-05T06:26:29;16.80;96.60
67163;DHT22;54092;53.088;8.850;2022-07-05T06:28:55;16.90;94.00
67163;DHT22;54092;53.088;8.850;2022-07-05T06:31:20;16.90;94.80
67163;DHT22;54092;53.088;8.850;2022-07-05T06:33:45;16.90;94.30
67163;DHT22;54092;53.088;8.850;2022-07-05T06:36:11;17.00;94.90
67163;DHT22;54092;53.088;8.850;2022-07-05T06:38:36;17.00;93.50
67163;DHT22;54092;53.088;8.850;2022-07-05T06:41:02;17.20;95.10
67163;DHT22;54092;53.088;8.850;2022-07-05T06:43:27;17.30;93.50
67163;DHT22;54092;53.088;8.850;2022-07-05T06:45:53;17.40;93.00
67163;DHT22;54092;53.088;8.850;2022-07-05T06:48:19;17.40;92.30
67163;DHT22;54092;53.088;8.850;2022-07-05T06:50:44;17.50;91.60
67163;DHT22;54092;53.088;8.850;2022-07-05T06:53:10;17.60;91.60
67163;DHT22;54092;53.088;8.850;2022-07-05T06:55:37;17.60;91.60
67163;DHT22;54092;53.088;8.850;2022-07-05T06:58:06;17.70;90.80
67163;DHT22;54092;53.088;8.850;2022-07-05T07:00:32;17.80;90.40
67163;DHT22;54092;53.088;8.850;2022-07-05T07:02:57;17.90;90.00
67163;DHT22;54092;53.088;8.850;2022-07-05T07:05:23;18.00;90.10
67163;DHT22;54092;53.088;8.850;2022-07-05T07:07:48;18.10;88.20
67163;DHT22;54092;53.088;8.850;2022-07-05T07:10:32;18.20;87.40
67163;DHT22;54092;53.088;8.850;2022-07-05T07:12:58;18.30;83.60
67163;DHT22;54092;53.088;8.850;2022-07-05T07:15:24;18.40;85.80
67163;DHT22;54092;53.088;8.850;2022-07-05T07:17:49;18.40;81.70
67163;DHT22;54092;53.088;8.850;2022-07-05T07:20:15;18.20;82.10
67163;DHT22;54092;53.088;8.850;2022-07-05T07:22:40;18.20;78.50
67163;DHT22;54092;53.088;8.850;2022-07-05T07:25:06;18.30;85.80
67163;DHT22;54092;53.088;8.850;2022-07-05T07:27:49;18.50;81.10
67163;DHT22;54092;53.088;8.850;2022-07-05T07:30:16;18.60;79.90
67163;DHT22;54092;53.088;8.850;2022-07-05T07:32:42;18.80;81.00
67163;DHT22;54092;53.088;8.850;2022-07-05T07:35:08;18.80;75.30
67163;DHT22;54092;53.088;8.850;2022-07-05T07:37:34;18.70;77.40
67163;DHT22;54092;53.088;8.850;2022-07-05T07:39:59;18.60;72.70
67163;DHT22;54092;53.088;8.850;2022-07-05T07:42:26;18.70;68.70
67163;DHT22;54092;53.088;8.850;2022-07-05T07:44:52;18.70;65.10
67163;DHT22;54092;53.088;8.850;2022-07-05T07:47:18;18.70;65.20
67163;DHT22;54092;53.088;8.850;2022-07-05T07:49:43;18.70;65.40
67163;DHT22;54092;53.088;8.850;2022-07-05T07:52:09;18.70;70.10
67163;DHT22;54092;53.088;8.850;2022-07-05T07:54:34;18.90;65.80
67163;DHT22;54092;53.088;8.850;2022-07-05T07:56:59;19.10;66.70
67163;DHT22;54092;53.088;8.850;2022-07-05T07:59:27;19.10;66.10
67163;DHT22;54092;53.088;8.850;2022-07-05T08:01:52;19.20;61.80
67163;DHT22;54092;53.088;8.850;2022-07-05T08:04:17;19.30;63.30
67163;DHT22;54092;53.088;8.850;2022-07-05T08:06:43;19.20;60.40
67163;DHT22;54092;53.088;8.850;2022-07-05T08:09:09;18.90;59.30
67163;DHT22;54092;53.088;8.850;2022-07-05T08:11:34;18.90;59.70
67163;DHT22;54092;53.088;8.850;2022-07-05T08:14:00;19.00;61.70
67163;DHT22;54092;53.088;8.850;2022-07-05T08:16:25;19.20;58.70
67163;DHT22;54092;53.088;8.850;2022-07-05T08:18:51;19.30;56.00
67163;DHT22;54092;53.088;8.850;2022-07-05T08:21:35;19.50;51.40
67163;DHT22;54092;53.088;8.850;2022-07-05T08:24:10;19.80;51.70
67163;DHT22;54092;53.088;8.850;2022-07-05T08:26:36;19.80;49.70
67163;DHT22;54092;53.088;8.850;2022-07-05T08:29:06;19.80;52.80
67163;DHT22;54092;53.088;8.850;2022-07-05T08:31:34;20.00;53.20
67163;DHT22;54092;53.088;8.850;2022-07-05T08:34:00;20.10;47.10
67163;DHT22;54092;53.088;8.850;2022-07-05T08:36:26;20.10;48.30
67163;DHT22;54092;53.088;8.850;2022-07-05T08:38:51;19.60;49.20
67163;DHT22;54092;53.088;8.850;2022-07-05T08:41:18;19.40;49.20
67163;DHT22;54092;53.088;8.850;2022-07-05T08:43:45;19.40;49.20
67163;DHT22;54092;53.088;8.850;2022-07-05T08:46:10;19.70;49.30
67163;DHT22;54092;53.088;8.850;2022-07-05T08:48:36;20.10;48.20
67163;DHT22;54092;53.088;8.850;2022-07-05T08:51:10;20.40;47.10
67163;DHT22;54092;53.088;8.850;2022-07-05T08:53:36;20.50;46.50
67163;DHT22;54092;53.088;8.850;2022-07-05T08:56:02;20.50;47.00
67163;DHT22;54092;53.088;8.850;2022-07-05T08:58:28;20.40;43.70
67163;DHT22;54092;53.088;8.850;2022-07-05T09:00:53;20.30;45.40
67163;DHT22;54092;53.088;8.850;2022-07-05T09:03:19;20.40;45.80
67163;DHT22;54092;53.088;8.850;2022-07-05T09:05:45;20.70;46.80
67163;DHT22;54092;53.088;8.850;2022-07-05T09:08:14;20.70;46.50
67163;DHT22;54092;53.088;8.850;2022-07-05T09:10:42;20.80;45.90
67163;DHT22;54092;53.088;8.850;2022-07-05T09:13:08;21.10;45.50
67163;DHT22;54092;53.088;8.850;2022-07-05T09:15:34;21.50;43.30
67163;DHT22;54092;53.088;8.850;2022-07-05T09:17:59;21.20;42.90
67163;DHT22;54092;53.088;8.850;2022-07-05T09:20:26;21.10;43.90
67163;DHT22;54092;53.088;8.850;2022-07-05T09:22:52;21.20;44.60
67163;DHT22;54092;53.088;8.850;2022-07-05T09:27:47;21.50;43.70
67163;DHT22;54092;53.088;8.850;2022-07-05T09:30:14;22.30;42.40
67163;DHT22;54092;53.088;8.850;2022-07-05T09:32:48;22.90;39.70
67163;DHT22;54092;53.088;8.850;2022-07-05T09:35:24;23.30;37.20
67163;DHT22;54092;53.088;8.850;2022-07-05T09:37:49;23.50;37.40
67163;DHT22;54092;53.088;8.850;2022-07-05T09:40:15;23.10;37.00
67163;DHT22;54092;53.088;8.850;2022-07-05T09:42:40;22.40;39.70
67163;DHT22;54092;53.088;8.850;2022-07-05T09:45:06;21.90;41.40
67163;DHT22;54092;53.088;8.850;2022-07-05T09:47:31;21.90;41.10
67163;DHT22;54092;53.088;8.850;2022-07-05T09:49:57;22.00;40.90
67163;DHT22;54092;53.088;8.850;2022-07-05T09:52:29;21.80;41.90
67163;DHT22;54092;53.088;8.850;2022-07-05T09:55:02;21.60;43.00
67163;DHT22;54092;53.088;8.850;2022-07-05T09:57:28;21.40;43.70
67163;DHT22;54092;53.088;8.850;2022-07-05T10:00:00;21.70;43.50
67163;DHT22;54092;53.088;8.850;2022-07-05T10:02:39;22.60;41.80
67163;DHT22;54092;53.088;8.850;2022-07-05T10:07:33;22.30;40.60
67163;DHT22;54092;53.088;8.850;2022-07-05T10:10:00;21.90;40.90
67163;DHT22;54092;53.088;8.850;2022-07-05T10:12:26;22.00;41.80
67163;DHT22;54092;53.088;8.850;2022-07-05T10:14:51;22.00;41.90
67163;DHT22;54092;53.088;8.850;2022-07-05T10:17:17;21.70;42.60
67163;DHT22;54092;53.088;8.850;2022-07-05T10:19:43;21.60;43.00
67163;DHT22;54092;53.088;8.850;2022-07-05T10:22:11;21.50;43.60
67163;DHT22;54092;53.088;8.850;2022-07-05T10:24:37;21.60;43.60
67163;DHT22;54092;53.088;8.850;2022-07-05T10:27:05;21.50;44.00
67163;DHT22;54092;53.088;8.850;2022-07-05T10:29:31;21.30;45.30
67163;DHT22;54092;53.088;8.850;2022-07-05T10:31:58;21.10;44.80
67163;DHT22;54092;53.088;8.850;2022-07-05T10:34:24;21.30;45.50
67163;DHT22;54092;53.088;8.850;2022-07-05T10:36:50;22.60;42.70
67163;DHT22;54092;53.088;8.850;2022-07-05T10:39:15;23.00;40.40
67163;DHT22;54092;53.088;8.850;2022-07-05T10:41:41;22.60;40.20
67163;DHT22;54092;53.088;8.850;2022-07-05T10:44:07;22.40;39.80
67163;DHT22;54092;53.088;8.850;2022-07-05T10:46:34;23.00;39.20
67163;DHT22;54092;53.088;8.850;2022-07-05T10:49:15;23.20;38.30
67163;DHT22;54092;53.088;8.850;2022-07-05T10:51:43;23.40;39.20
67163;DHT22;54092;53.088;8.850;2022-07-05T10:54:08;23.00;40.30
67163;DHT22;54092;53.088;8.850;2022-07-05T10:56:34;22.30;42.00
67163;DHT22;54092;53.088;8.850;2022-07-05T10:59:07;22.10;42.40
67163;DHT22;54092;53.088;8.850;2022-07-05T11:01:35;21.70;43.80
67163;DHT22;54092;53.088;8.850;2022-07-05T11:06:30;21.30;45.10
67163;DHT22;54092;53.088;8.850;2022-07-05T11:13:49;21.30;44.40
67163;DHT22;54092;53.088;8.850;2022-07-05T11:18:50;21.00;45.30
67163;DHT22;54092;53.088;8.850;2022-07-05T11:21:22;21.10;45.20
67163;DHT22;54092;53.088;8.850;2022-07-05T11:23:48;22.00;44.10
67163;DHT22;54092;53.088;8.850;2022-07-05T11:26:15;23.50;40.90
67163;DHT22;54092;53.088;8.850;2022-07-05T11:28:45;24.00;38.80
67163;DHT22;54092;53.088;8.850;2022-07-05T11:31:12;23.80;38.80
67163;DHT22;54092;53.088;8.850;2022-07-05T11:33:40;24.10;37.20
67163;DHT22;54092;53.088;8.850;2022-07-05T11:36:28;23.30;38.80
67163;DHT22;54092;53.088;8.850;2022-07-05T11:39:10;22.80;40.70
67163;DHT22;54092;53.088;8.850;2022-07-05T11:41:37;22.50;42.00
67163;DHT22;54092;53.088;8.850;2022-07-05T11:44:04;21.90;42.90
67163;DHT22;54092;53.088;8.850;2022-07-05T11:46:30;21.50;43.60
67163;DHT22;54092;53.088;8.850;2022-07-05T11:48:57;21.30;44.60
67163;DHT22;54092;53.088;8.850;2022-07-05T11:51:24;22.00;44.10
67163;DHT22;54092;53.088;8.850;2022-07-05T11:53:50;22.50;42.60
67163;DHT22;54092;53.088;8.850;2022-07-05T11:56:15;22.60;42.10
67163;DHT22;54092;53.088;8.850;2022-07-05T11:58:40;22.50;42.80
67163;DHT22;54092;53.088;8.850;2022-07-05T12:01:06;22.90;41.60
67163;DHT22;54092;53.088;8.850;2022-07-05T12:03:32;24.30;39.60
67163;DHT22;54092;53.088;8.850;2022-07-05T12:05:58;25.40;37.30
67163;DHT22;54092;53.088;8.850;2022-07-05T12:08:23;25.90;37.20
67163;DHT22;54092;53.088;8.850;2022-07-05T12:10:49;24.30;39.40
67163;DHT22;54092;53.088;8.850;2022-07-05T12:13:43;23.40;41.20
67163;DHT22;54092;53.088;8.850;2022-07-05T12:16:10;22.90;41.50
67163;DHT22;54092;53.088;8.850;2022-07-05T12:21:31;22.80;40.00
67163;DHT22;54092;53.088;8.850;2022-07-05T12:23:56;23.90;38.90
67163;DHT22;54092;53.088;8.850;2022-07-05T12:26:22;25.50;37.50
67163;DHT22;54092;53.088;8.850;2022-07-05T12:28:47;26.70;34.70
67163;DHT22;54092;53.088;8.850;2022-07-05T12:31:17;26.60;33.90
67163;DHT22;54092;53.088;8.850;2022-07-05T12:33:43;25.40;35.90
67163;DHT22;54092;53.088;8.850;2022-07-05T12:36:13;25.00;36.50
67163;DHT22;54092;53.088;8.850;2022-07-05T12:38:39;24.40;36.20
67163;DHT22;54092;53.088;8.850;2022-07-05T12:41:04;23.40;39.30
67163;DHT22;54092;53.088;8.850;2022-07-05T12:43:30;22.70;41.60
67163;DHT22;54092;53.088;8.850;2022-07-05T12:46:00;22.40;40.30
67163;DHT22;54092;53.088;8.850;2022-07-05T12:48:32;22.00;41.50
67163;DHT22;54092;53.088;8.850;2022-07-05T12:50:59;21.90;42.10
67163;DHT22;54092;53.088;8.850;2022-07-05T12:53:24;22.00;43.50
67163;DHT22;54092;53.088;8.850;2022-07-05T12:56:09;22.20;42.70
67163;DHT22;54092;53.088;8.850;2022-07-05T12:58:54;23.00;41.20
67163;DHT22;54092;53.088;8.850;2022-07-05T13:01:24;23.00;40.80
67163;DHT22;54092;53.088;8.850;2022-07-05T13:04:12;22.70;42.10
67163;DHT22;54092;53.088;8.850;2022-07-05T13:09:05;22.10;43.70
67163;DHT22;54092;53.088;8.850;2022-07-05T13:11:30;21.90;44.40
67163;DHT22;54092;53.088;8.850;2022-07-05T13:13:56;21.80;44.50
67163;DHT22;54092;53.088;8.850;2022-07-05T13:16:22;22.00;43.90
67163;DHT22;54092;53.088;8.850;2022-07-05T13:18:47;22.20;43.40
67163;DHT22;54092;53.088;8.850;2022-07-05T13:21:13;22.50;42.60
67163;DHT22;54092;53.088;8.850;2022-07-05T13:23:38;22.70;40.90
67163;DHT22;54092;53.088;8.850;2022-07-05T13:26:03;22.10;41.60
67163;DHT22;54092;53.088;8.850;2022-07-05T13:28:29;22.00;42.80
67163;DHT22;54092;53.088;8.850;2022-07-05T13:30:54;22.10;44.10
67163;DHT22;54092;53.088;8.850;2022-07-05T13:33:20;22.30;43.60
67163;DHT22;54092;53.088;8.850;2022-07-05T13:35:45;22.30;43.20
67163;DHT22;54092;53.088;8.850;2022-07-05T13:38:11;22.40;43.60
67163;DHT22;54092;53.088;8.850;2022-07-05T13:40:37;22.30;43.50
67163;DHT22;54092;53.088;8.850;2022-07-05T13:43:02;22.20;43.90
67163;DHT22;54092;53.088;8.850;2022-07-05T13:45:27;22.10;44.70
67163;DHT22;54092;53.088;8.850;2022-07-05T13:47:53;22.10;45.50
67163;DHT22;54092;53.088;8.850;2022-07-05T13:50:18;21.90;44.70
67163;DHT22;54092;53.088;8.850;2022-07-05T13:52:56;21.90;43.40
67163;DHT22;54092;53.088;8.850;2022-07-05T13:55:21;22.00;43.30
67163;DHT22;54092;53.088;8.850;2022-07-05T13:57:47;21.90;42.90
67163;DHT22;54092;53.088;8.850;2022-07-05T14:00:13;21.70;42.60
67163;DHT22;54092;53.088;8.850;2022-07-05T14:02:38;21.60;43.40
67163;DHT22;54092;53.088;8.850;2022-07-05T14:05:04;21.40;43.90
67163;DHT22;54092;53.088;8.850;2022-07-05T14:07:29;21.50;42.70
67163;DHT22;54092;53.088;8.850;2022-07-05T14:09:55;21.40;45.70
67163;DHT22;54092;53.088;8.850;2022-07-05T14:12:20;21.40;46.90
67163;DHT22;54092;53.088;8.850;2022-07-05T14:14:46;21.50;47.50
67163;DHT22;54092;53.088;8.850;2022-07-05T14:17:11;22.00;46.60
67163;DHT22;54092;53.088;8.850;2022-07-05T14:19:36;22.40;45.60
67163;DHT22;54092;53.088;8.850;2022-07-05T14:22:03;22.50;44.60
67163;DHT22;54092;53.088;8.850;2022-07-05T14:24:28;22.60;45.40
67163;DHT22;54092;53.088;8.850;2022-07-05T14:26:54;22.50;44.80
67163;DHT22;54092;53.088;8.850;2022-07-05T14:29:19;22.30;45.60
67163;DHT22;54092;53.088;8.850;2022-07-05T14:31:45;22.10;46.90
67163;DHT22;54092;53.088;8.850;2022-07-05T14:34:10;22.00;46.70
67163;DHT22;54092;53.088;8.850;2022-07-05T14:36:36;22.00;47.20
67163;DHT22;54092;53.088;8.850;2022-07-05T14:39:01;22.00;47.10
67163;DHT22;54092;53.088;8.850;2022-07-05T14:41:27;21.90;46.40
67163;DHT22;54092;53.088;8.850;2022-07-05T14:43:53;21.80;46.60
67163;DHT22;54092;53.088;8.850;2022-07-05T14:46:19;21.80;45.60
67163;DHT22;54092;53.088;8.850;2022-07-05T14:48:45;21.80;46.90
67163;DHT22;54092;53.088;8.850;2022-07-05T14:51:10;21.90;46.30
67163;DHT22;54092;53.088;8.850;2022-07-05T14:53:36;21.90;46.20
67163;DHT22;54092;53.088;8.850;2022-07-05T14:56:01;21.80;46.50
67163;DHT22;54092;53.088;8.850;2022-07-05T14:58:27;21.50;45.30
67163;DHT22;54092;53.088;8.850;2022-07-05T15:00:57;21.30;45.80
67163;DHT22;54092;53.088;8.850;2022-07-05T15:03:23;21.30;48.20
67163;DHT22;54092;53.088;8.850;2022-07-05T15:05:49;21.10;51.50
67163;DHT22;54092;53.088;8.850;2022-07-05T15:08:14;21.00;56.20
67163;DHT22;54092;53.088;8.850;2022-07-05T15:10:40;20.80;60.80
67163;DHT22;54092;53.088;8.850;2022-07-05T15:13:05;20.60;65.30
67163;DHT22;54092;53.088;8.850;2022-07-05T15:15:32;20.50;68.80
67163;DHT22;54092;53.088;8.850;2022-07-05T15:17:58;20.30;70.40
67163;DHT22;54092;53.088;8.850;2022-07-05T15:20:23;20.30;72.00
67163;DHT22;54092;53.088;8.850;2022-07-05T15:22:52;20.30;71.70
67163;DHT22;54092;53.088;8.850;2022-07-05T15:25:17;20.30;70.80
67163;DHT22;54092;53.088;8.850;2022-07-05T15:27:43;20.20;68.40
67163;DHT22;54092;53.088;8.850;2022-07-05T15:30:08;20.10;69.10
67163;DHT22;54092;53.088;8.850;2022-07-05T15:32:35;20.10;71.20
67163;DHT22;54092;53.088;8.850;2022-07-05T15:35:00;20.20;69.30
67163;DHT22;54092;53.088;8.850;2022-07-05T15:37:26;20.20;68.10
67163;DHT22;54092;53.088;8.850;2022-07-05T15:39:52;20.30;69.50
67163;DHT22;54092;53.088;8.850;2022-07-05T15:42:18;20.30;68.80
67163;DHT22;54092;53.088;8.850;2022-07-05T15:44:45;20.30;68.60
67163;DHT22;54092;53.088;8.850;2022-07-05T15:47:11;20.20;70.00